sensor_id;sensor_type;location;lat;lon;timestamp;P1;durP1;ratioP1;P2;durP2;ratioP2
2480;SDS011;57396;48.742;9.128;2023-06-01T00:00:41;8.63;;;4.00;;
2480;SDS011;57396;48.742;9.128;2023-06-01T00:03:09;6.83;;;3.90;;
2480;SDS011;57396;48.742;9.128;2023-06-01T00:05:34;4.67;;;3.57;;
2480;SDS011;57396;48.742;9.128;2023-06-01T00:08:00;7.13;;;3.90;;
2480;SDS011;57396;48.742;9.128;2023-06-01T00:10:25;7.67;;;4.20;;
2480;SDS011;57396;48.742;9.128;2023-06-01T00:12:51;6.63;;;4.00;;
2480;SDS011;57396;48.742;9.128;2023-06-01T00:15:16;5.70;;;3.57;;
2480;SDS011;57396;48.742;9.128;2023-06-01T00:17:42;5.60;;;4.17;;
2480;SDS011;57396;48.742;9.128;2023-06-01T00:20:07;6.10;;;3.97;;
2480;SDS011;57396;48.742;9.128;2023-06-01T00:22:33;7.80;;;4.17;;
2480;SDS011;57396;48.742;9.128;2023-06-01T00:25:07;6.07;;;4.43;;
2480;SDS011;57396;48.742;9.128;2023-06-01T00:27:33;4.60;;;4.07;;
2480;SDS011;57396;48.742;9.128;2023-06-01T00:29:58;6.50;;;3.70;;
2480;SDS011;57396;48.742;9.128;2023-06-01T00:32:24;6.60;;;4.47;;
2480;SDS011;57396;48.742;9.128;2023-06-01T00:34:49;6.80;;;4.53;;
2480;SDS011;57396;48.742;9.128;2023-06-01T00:37:15;8.60;;;4.60;;
2480;SDS011;57396;48.742;9.128;2023-06-01T00:39:40;5.23;;;3.50;;
2480;SDS011;57396;48.742;9.128;2023-06-01T00:42:06;5.43;;;3.40;;
2480;SDS011;57396;48.742;9.128;2023-06-01T00:44:31;10.80;;;4.60;;
2480;SDS011;57396;48.742;9.128;2023-06-01T00:46:57;14.30;;;4.40;;
2480;SDS011;57396;48.742;9.128;2023-06-01T00:49:24;6.70;;;4.00;;
2480;SDS011;57396;48.742;9.128;2023-06-01T00:51:50;8.90;;;4.30;;
2480;SDS011;57396;48.742;9.128;2023-06-01T00:54:16;11.70;;;4.97;;
2480;SDS011;57396;48.742;9.128;2023-06-01T00:56:41;6.87;;;4.00;;
2480;SDS011;57396;48.742;9.128;2023-06-01T00:59:07;6.03;;;4.33;;
2480;SDS011;57396;48.742;9.128;2023-06-01T01:01:32;7.60;;;4.23;;
2480;SDS011;57396;48.742;9.128;2023-06-01T01:03:58;5.10;;;4.27;;
2480;SDS011;57396;48.742;9.128;2023-06-01T01:06:31;7.10;;;4.33;;
2480;SDS011;57396;48.742;9.128;2023-06-01T01:11:36;5.67;;;4.00;;
2480;SDS011;57396;48.742;9.128;2023-06-01T01:21:38;6.43;;;4.07;;
2480;SDS011;57396;48.742;9.128;2023-06-01T01:24:23;13.37;;;4.53;;
2480;SDS011;57396;48.742;9.128;2023-06-01T01:29:52;6.33;;;4.20;;
2480;SDS011;57396;48.742;9.128;2023-06-01T01:32:21;6.93;;;4.07;;
2480;SDS011;57396;48.742;9.128;2023-06-01T01:34:48;9.20;;;4.63;;
2480;SDS011;57396;48.742;9.128;2023-06-01T01:37:13;8.10;;;4.10;;
2480;SDS011;57396;48.742;9.128;2023-06-01T01:39:39;6.60;;;3.80;;
2480;SDS011;57396;48.742;9.128;2023-06-01T01:42:04;8.80;;;4.20;;
2480;SDS011;57396;48.742;9.128;2023-06-01T01:44:30;8.47;;;4.37;;
2480;SDS011;57396;48.742;9.128;2023-06-01T01:46:57;5.17;;;4.10;;
2480;SDS011;57396;48.742;9.128;2023-06-01T01:51:57;12.20;;;4.20;;
2480;SDS011;57396;48.742;9.128;2023-06-01T01:54:45;5.13;;;3.90;;
2480;SDS011;57396;48.742;9.128;2023-06-01T01:57:14;6.63;;;4.10;;
2480;SDS011;57396;48.742;9.128;2023-06-01T01:59:40;5.60;;;3.93;;
2480;SDS011;57396;48.742;9.128;2023-06-01T02:02:07;4.73;;;3.73;;
2480;SDS011;57396;48.742;9.128;2023-06-01T02:04:32;7.73;;;4.17;;
2480;SDS011;57396;48.742;9.128;2023-06-01T02:06:58;6.93;;;3.90;;
2480;SDS011;57396;48.742;9.128;2023-06-01T02:09:23;4.77;;;3.70;;
2480;SDS011;57396;48.742;9.128;2023-06-01T02:11:49;7.47;;;4.43;;
2480;SDS011;57396;48.742;9.128;2023-06-01T02:14:14;5.90;;;4.17;;
2480;SDS011;57396;48.742;9.128;2023-06-01T02:16:40;7.57;;;4.30;;
2480;SDS011;57396;48.742;9.128;2023-06-01T02:19:05;5.70;;;4.07;;
2480;SDS011;57396;48.742;9.128;2023-06-01T02:21:31;5.80;;;4.47;;
2480;SDS011;57396;48.742;9.128;2023-06-01T02:23:56;7.40;;;4.40;;
2480;SDS011;57396;48.742;9.128;2023-06-01T02:26:29;5.67;;;4.43;;
2480;SDS011;57396;48.742;9.128;2023-06-01T02:28:55;5.63;;;4.63;;
2480;SDS011;57396;48.742;9.128;2023-06-01T02:31:21;7.70;;;4.37;;
2480;SDS011;57396;48.742;9.128;2023-06-01T02:33:47;4.73;;;4.10;;
2480;SDS011;57396;48.742;9.128;2023-06-01T02:36:12;7.73;;;4.70;;
2480;SDS011;57396;48.742;9.128;2023-06-01T02:38:37;6.47;;;4.70;;
2480;SDS011;57396;48.742;9.128;2023-06-01T02:41:03;7.07;;;4.63;;
2480;SDS011;57396;48.742;9.128;2023-06-01T02:43:28;7.97;;;4.80;;
2480;SDS011;57396;48.742;9.128;2023-06-01T02:45:54;5.10;;;4.00;;
2480;SDS011;57396;48.742;9.128;2023-06-01T02:48:20;5.80;;;4.17;;
2480;SDS011;57396;48.742;9.128;2023-06-01T02:50:46;8.60;;;3.87;;
2480;SDS011;57396;48.742;9.128;2023-06-01T02:53:13;5.10;;;4.20;;
2480;SDS011;57396;48.742;9.128;2023-06-01T02:55:38;11.27;;;4.40;;
2480;SDS011;57396;48.742;9.128;2023-06-01T02:58:03;16.33;;;4.30;;
2480;SDS011;57396;48.742;9.128;2023-06-01T03:00:29;5.50;;;4.10;;
2480;SDS011;57396;48.742;9.128;2023-06-01T03:02:55;4.60;;;3.53;;
2480;SDS011;57396;48.742;9.128;2023-06-01T03:05:21;6.90;;;3.80;;
2480;SDS011;57396;48.742;9.128;2023-06-01T03:07:46;6.67;;;4.70;;
2480;SDS011;57396;48.742;9.128;2023-06-01T03:10:12;5.63;;;4.13;;
2480;SDS011;57396;48.742;9.128;2023-06-01T03:12:38;8.23;;;4.60;;
2480;SDS011;57396;48.742;9.128;2023-06-01T03:15:04;5.83;;;4.10;;
2480;SDS011;57396;48.742;9.128;2023-06-01T03:17:30;9.40;;;4.27;;
2480;SDS011;57396;48.742;9.128;2023-06-01T03:19:56;7.83;;;3.90;;
2480;SDS011;57396;48.742;9.128;2023-06-01T03:22:22;6.03;;;4.27;;
2480;SDS011;57396;48.742;9.128;2023-06-01T03:24:47;6.23;;;3.97;;
2480;SDS011;57396;48.742;9.128;2023-06-01T03:27:17;5.03;;;3.60;;
2480;SDS011;57396;48.742;9.128;2023-06-01T03:29:43;9.20;;;4.03;;
2480;SDS011;57396;48.742;9.128;2023-06-01T03:32:08;5.87;;;4.10;;
2480;SDS011;57396;48.742;9.128;2023-06-01T03:34:34;7.30;;;4.40;;
2480;SDS011;57396;48.742;9.128;2023-06-01T03:37:02;6.57;;;4.53;;
2480;SDS011;57396;48.742;9.128;2023-06-01T03:39:29;5.30;;;4.37;;
2480;SDS011;57396;48.742;9.128;2023-06-01T03:41:58;5.00;;;4.03;;
2480;SDS011;57396;48.742;9.128;2023-06-01T03:44:24;12.00;;;4.40;;
2480;SDS011;57396;48.742;9.128;2023-06-01T03:46:50;9.33;;;4.57;;
2480;SDS011;57396;48.742;9.128;2023-06-01T03:49:15;11.37;;;4.03;;
2480;SDS011;57396;48.742;9.128;2023-06-01T03:51:41;8.53;;;4.40;;
2480;SDS011;57396;48.742;9.128;2023-06-01T03:54:06;8.60;;;4.07;;
2480;SDS011;57396;48.742;9.128;2023-06-01T03:56:32;4.90;;;3.90;;
2480;SDS011;57396;48.742;9.128;2023-06-01T03:58:57;5.43;;;3.73;;
2480;SDS011;57396;48.742;9.128;2023-06-01T04:01:23;5.90;;;4.30;;
2480;SDS011;57396;48.742;9.128;2023-06-01T04:03:48;5.57;;;4.10;;
2480;SDS011;57396;48.742;9.128;2023-06-01T04:06:15;6.70;;;4.23;;
2480;SDS011;57396;48.742;9.128;2023-06-01T04:08:45;7.17;;;4.30;;
2480;SDS011;57396;48.742;9.128;2023-06-01T04:11:14;11.47;;;4.33;;
2480;SDS011;57396;48.742;9.128;2023-06-01T04:13:40;7.97;;;4.00;;
2480;SDS011;57396;48.742;9.128;2023-06-01T04:16:06;6.20;;;4.07;;
2480;SDS011;57396;48.742;9.128;2023-06-01T04:18:31;6.53;;;4.80;;
2480;SDS011;57396;48.742;9.128;2023-06-01T04:20:57;7.47;;;4.93;;
2480;SDS011;57396;48.742;9.128;2023-06-01T04:23:22;8.03;;;4.97;;
2480;SDS011;57396;48.742;9.128;2023-06-01T04:25:48;6.80;;;4.60;;
2480;SDS011;57396;48.742;9.128;2023-06-01T04:28:16;7.50;;;4.70;;
2480;SDS011;57396;48.742;9.128;2023-06-01T04:30:42;9.17;;;4.33;;
2480;SDS011;57396;48.742;9.128;2023-06-01T04:33:09;5.87;;;4.03;;
2480;SDS011;57396;48.742;9.128;2023-06-01T04:35:35;8.00;;;4.73;;
2480;SDS011;57396;48.742;9.128;2023-06-01T04:38:02;7.83;;;4.77;;
2480;SDS011;57396;48.742;9.128;2023-06-01T04:40:27;9.93;;;4.60;;
2480;SDS011;57396;48.742;9.128;2023-06-01T04:42:53;5.27;;;4.40;;
2480;SDS011;57396;48.742;9.128;2023-06-01T04:45:21;11.73;;;4.80;;
2480;SDS011;57396;48.742;9.128;2023-06-01T04:47:48;6.80;;;4.63;;
2480;SDS011;57396;48.742;9.128;2023-06-01T04:50:15;6.30;;;4.73;;
2480;SDS011;57396;48.742;9.128;2023-06-01T04:52:41;11.90;;;4.53;;
2480;SDS011;57396;48.742;9.128;2023-06-01T04:55:07;8.33;;;4.50;;
2480;SDS011;57396;48.742;9.128;2023-06-01T04:57:34;8.93;;;5.23;;
2480;SDS011;57396;48.742;9.128;2023-06-01T05:00:00;12.07;;;5.13;;
2480;SDS011;57396;48.742;9.128;2023-06-01T05:02:30;7.30;;;4.70;;
2480;SDS011;57396;48.742;9.128;2023-06-01T05:04:55;9.90;;;4.33;;
2480;SDS011;57396;48.742;9.128;2023-06-01T05:07:20;14.70;;;4.80;;
2480;SDS011;57396;48.742;9.128;2023-06-01T05:09:46;10.03;;;4.07;;
2480;SDS011;57396;48.742;9.128;2023-06-01T05:12:12;8.43;;;4.00;;
2480;SDS011;57396;48.742;9.128;2023-06-01T05:14:38;6.10;;;4.20;;
2480;SDS011;57396;48.742;9.128;2023-06-01T05:17:03;9.37;;;4.43;;
2480;SDS011;57396;48.742;9.128;2023-06-01T05:19:29;7.20;;;4.37;;
2480;SDS011;57396;48.742;9.128;2023-06-01T05:21:55;6.30;;;4.00;;
2480;SDS011;57396;48.742;9.128;2023-06-01T05:24:20;7.30;;;4.10;;
2480;SDS011;57396;48.742;9.128;2023-06-01T05:26:45;6.50;;;4.07;;
2480;SDS011;57396;48.742;9.128;2023-06-01T05:29:11;7.13;;;4.37;;
2480;SDS011;57396;48.742;9.128;2023-06-01T05:31:36;6.60;;;3.90;;
2480;SDS011;57396;48.742;9.128;2023-06-01T05:34:02;8.27;;;4.37;;
2480;SDS011;57396;48.742;9.128;2023-06-01T05:36:27;5.57;;;4.00;;
2480;SDS011;57396;48.742;9.128;2023-06-01T05:38:53;12.50;;;4.03;;
2480;SDS011;57396;48.742;9.128;2023-06-01T05:41:18;7.93;;;4.07;;
2480;SDS011;57396;48.742;9.128;2023-06-01T05:43:44;6.77;;;3.97;;
2480;SDS011;57396;48.742;9.128;2023-06-01T05:46:09;7.23;;;4.67;;
2480;SDS011;57396;48.742;9.128;2023-06-01T05:48:34;7.83;;;3.90;;
2480;SDS011;57396;48.742;9.128;2023-06-01T05:51:00;5.57;;;3.70;;
2480;SDS011;57396;48.742;9.128;2023-06-01T05:53:25;5.23;;;3.60;;
2480;SDS011;57396;48.742;9.128;2023-06-01T05:55:52;6.83;;;3.60;;
2480;SDS011;57396;48.742;9.128;2023-06-01T05:58:18;11.93;;;3.33;;
2480;SDS011;57396;48.742;9.128;2023-06-01T06:00:43;9.00;;;3.47;;
2480;SDS011;57396;48.742;9.128;2023-06-01T06:03:09;5.23;;;3.23;;
2480;SDS011;57396;48.742;9.128;2023-06-01T06:05:34;8.33;;;3.70;;
2480;SDS011;57396;48.742;9.128;2023-06-01T06:08:00;4.70;;;3.83;;
2480;SDS011;57396;48.742;9.128;2023-06-01T06:10:26;6.97;;;3.33;;
2480;SDS011;57396;48.742;9.128;2023-06-01T06:12:51;6.10;;;3.80;;
2480;SDS011;57396;48.742;9.128;2023-06-01T06:15:17;6.53;;;3.57;;
2480;SDS011;57396;48.742;9.128;2023-06-01T06:17:42;10.03;;;4.00;;
2480;SDS011;57396;48.742;9.128;2023-06-01T06:20:08;8.17;;;4.33;;
2480;SDS011;57396;48.742;9.128;2023-06-01T06:22:35;6.93;;;3.83;;
2480;SDS011;57396;48.742;9.128;2023-06-01T06:25:00;7.73;;;4.07;;
2480;SDS011;57396;48.742;9.128;2023-06-01T06:27:26;6.17;;;3.63;;
2480;SDS011;57396;48.742;9.128;2023-06-01T06:29:51;7.53;;;3.30;;
2480;SDS011;57396;48.742;9.128;2023-06-01T06:32:17;9.57;;;3.80;;
2480;SDS011;57396;48.742;9.128;2023-06-01T06:34:44;5.27;;;3.60;;
2480;SDS011;57396;48.742;9.128;2023-06-01T06:37:10;7.57;;;4.13;;
2480;SDS011;57396;48.742;9.128;2023-06-01T06:39:36;5.37;;;3.60;;
2480;SDS011;57396;48.742;9.128;2023-06-01T06:42:03;7.80;;;3.87;;
2480;SDS011;57396;48.742;9.128;2023-06-01T06:44:29;5.37;;;3.67;;
2480;SDS011;57396;48.742;9.128;2023-06-01T06:46:54;5.70;;;4.00;;
2480;SDS011;57396;48.742;9.128;2023-06-01T06:49:20;8.10;;;4.03;;
2480;SDS011;57396;48.742;9.128;2023-06-01T06:51:45;11.50;;;3.77;;
2480;SDS011;57396;48.742;9.128;2023-06-01T06:54:11;13.40;;;3.93;;
2480;SDS011;57396;48.742;9.128;2023-06-01T06:56:37;7.70;;;3.60;;
2480;SDS011;57396;48.742;9.128;2023-06-01T06:59:03;7.97;;;3.80;;
2480;SDS011;57396;48.742;9.128;2023-06-01T07:01:28;11.97;;;4.40;;
2480;SDS011;57396;48.742;9.128;2023-06-01T07:03:54;12.70;;;4.20;;
2480;SDS011;57396;48.742;9.128;2023-06-01T07:06:20;7.40;;;4.00;;
2480;SDS011;57396;48.742;9.128;2023-06-01T07:08:46;10.70;;;4.17;;
2480;SDS011;57396;48.742;9.128;2023-06-01T07:11:11;3.83;;;3.30;;
2480;SDS011;57396;48.742;9.128;2023-06-01T07:13:37;10.77;;;3.90;;
2480;SDS011;57396;48.742;9.128;2023-06-01T07:16:03;9.17;;;4.30;;
2480;SDS011;57396;48.742;9.128;2023-06-01T07:18:30;5.77;;;4.07;;
2480;SDS011;57396;48.742;9.128;2023-06-01T07:20:59;10.90;;;4.30;;
2480;SDS011;57396;48.742;9.128;2023-06-01T07:23:25;7.03;;;3.73;;
2480;SDS011;57396;48.742;9.128;2023-06-01T07:25:51;12.87;;;4.00;;
2480;SDS011;57396;48.742;9.128;2023-06-01T07:28:17;8.53;;;4.20;;
2480;SDS011;57396;48.742;9.128;2023-06-01T07:30:43;8.60;;;3.50;;
2480;SDS011;57396;48.742;9.128;2023-06-01T07:33:08;8.37;;;3.50;;
2480;SDS011;57396;48.742;9.128;2023-06-01T07:35:34;5.87;;;3.40;;
2480;SDS011;57396;48.742;9.128;2023-06-01T07:38:00;5.33;;;3.67;;
2480;SDS011;57396;48.742;9.128;2023-06-01T07:40:28;7.33;;;4.10;;
2480;SDS011;57396;48.742;9.128;2023-06-01T07:42:55;11.40;;;4.00;;
2480;SDS011;57396;48.742;9.128;2023-06-01T07:45:21;8.23;;;4.20;;
2480;SDS011;57396;48.742;9.128;2023-06-01T07:47:46;12.17;;;4.63;;
2480;SDS011;57396;48.742;9.128;2023-06-01T07:50:12;8.03;;;4.30;;
2480;SDS011;57396;48.742;9.128;2023-06-01T07:52:38;7.10;;;3.73;;
2480;SDS011;57396;48.742;9.128;2023-06-01T07:55:03;8.50;;;3.60;;
2480;SDS011;57396;48.742;9.128;2023-06-01T07:57:29;7.40;;;4.07;;
2480;SDS011;57396;48.742;9.128;2023-06-01T07:59:55;6.47;;;3.77;;
2480;SDS011;57396;48.742;9.128;2023-06-01T08:02:21;7.70;;;4.07;;
2480;SDS011;57396;48.742;9.128;2023-06-01T08:04:47;7.43;;;3.83;;
2480;SDS011;57396;48.742;9.128;2023-06-01T08:07:13;9.63;;;4.13;;
2480;SDS011;57396;48.742;9.128;2023-06-01T08:09:41;8.43;;;5.00;;
2480;SDS011;57396;48.742;9.128;2023-06-01T08:12:07;7.20;;;4.17;;
2480;SDS011;57396;48.742;9.128;2023-06-01T08:14:33;17.93;;;3.90;;
2480;SDS011;57396;48.742;9.128;2023-06-01T08:16:59;17.70;;;4.13;;
2480;SDS011;57396;48.742;9.128;2023-06-01T08:19:27;7.13;;;4.03;;
2480;SDS011;57396;48.742;9.128;2023-06-01T08:21:52;4.47;;;3.97;;
2480;SDS011;57396;48.742;9.128;2023-06-01T08:24:18;5.53;;;3.80;;
2480;SDS011;57396;48.742;9.128;2023-06-01T08:26:48;8.87;;;4.30;;
2480;SDS011;57396;48.742;9.128;2023-06-01T08:29:13;6.47;;;3.93;;
2480;SDS011;57396;48.742;9.128;2023-06-01T08:31:39;11.33;;;3.97;;
2480;SDS011;57396;48.742;9.128;2023-06-01T08:34:04;10.50;;;4.20;;
2480;SDS011;57396;48.742;9.128;2023-06-01T08:36:30;12.07;;;4.00;;
2480;SDS011;57396;48.742;9.128;2023-06-01T08:38:56;8.80;;;4.30;;
2480;SDS011;57396;48.742;9.128;2023-06-01T08:44:05;10.70;;;4.70;;
2480;SDS011;57396;48.742;9.128;2023-06-01T08:46:33;8.27;;;4.80;;
2480;SDS011;57396;48.742;9.128;2023-06-01T08:49:02;8.23;;;4.33;;
2480;SDS011;57396;48.742;9.128;2023-06-01T08:51:27;8.67;;;4.10;;
2480;SDS011;57396;48.742;9.128;2023-06-01T08:53:54;11.23;;;4.57;;
2480;SDS011;57396;48.742;9.128;2023-06-01T08:56:22;12.17;;;4.60;;
2480;SDS011;57396;48.742;9.128;2023-06-01T08:58:48;8.43;;;4.03;;
2480;SDS011;57396;48.742;9.128;2023-06-01T09:01:18;9.03;;;4.30;;
2480;SDS011;57396;48.742;9.128;2023-06-01T09:03:46;8.33;;;4.57;;
2480;SDS011;57396;48.742;9.128;2023-06-01T09:06:12;9.80;;;4.30;;
2480;SDS011;57396;48.742;9.128;2023-06-01T09:08:38;6.80;;;4.03;;
2480;SDS011;57396;48.742;9.128;2023-06-01T09:11:03;10.37;;;4.70;;
2480;SDS011;57396;48.742;9.128;2023-06-01T09:13:35;13.93;;;4.63;;
2480;SDS011;57396;48.742;9.128;2023-06-01T09:16:02;9.33;;;4.30;;
2480;SDS011;57396;48.742;9.128;2023-06-01T09:18:28;7.80;;;4.33;;
2480;SDS011;57396;48.742;9.128;2023-06-01T09:20:53;8.07;;;4.60;;
2480;SDS011;57396;48.742;9.128;2023-06-01T09:23:28;9.30;;;4.80;;
2480;SDS011;57396;48.742;9.128;2023-06-01T09:26:06;14.10;;;4.50;;
2480;SDS011;57396;48.742;9.128;2023-06-01T09:29:06;15.50;;;4.43;;
2480;SDS011;57396;48.742;9.128;2023-06-01T09:31:38;6.50;;;4.30;;
2480;SDS011;57396;48.742;9.128;2023-06-01T09:34:08;6.93;;;4.80;;
2480;SDS011;57396;48.742;9.128;2023-06-01T09:36:34;6.67;;;4.30;;
2480;SDS011;57396;48.742;9.128;2023-06-01T09:39:05;6.10;;;4.40;;
2480;SDS011;57396;48.742;9.128;2023-06-01T09:41:44;8.63;;;4.47;;
2480;SDS011;57396;48.742;9.128;2023-06-01T09:44:09;7.77;;;4.67;;
2480;SDS011;57396;48.742;9.128;2023-06-01T09:46:45;7.83;;;4.63;;
2480;SDS011;57396;48.742;9.128;2023-06-01T09:49:17;9.97;;;4.60;;
2480;SDS011;57396;48.742;9.128;2023-06-01T09:51:44;10.97;;;4.50;;
2480;SDS011;57396;48.742;9.128;2023-06-01T09:54:10;12.33;;;4.43;;
2480;SDS011;57396;48.742;9.128;2023-06-01T09:56:42;5.63;;;4.33;;
2480;SDS011;57396;48.742;9.128;2023-06-01T09:59:08;9.83;;;4.80;;
2480;SDS011;57396;48.742;9.128;2023-06-01T10:01:34;14.33;;;4.77;;
2480;SDS011;57396;48.742;9.128;2023-06-01T10:04:00;9.03;;;4.53;;
2480;SDS011;57396;48.742;9.128;2023-06-01T10:06:26;7.80;;;4.50;;
2480;SDS011;57396;48.742;9.128;2023-06-01T10:08:53;8.43;;;4.80;;
2480;SDS011;57396;48.742;9.128;2023-06-01T10:11:20;5.80;;;4.40;;
2480;SDS011;57396;48.742;9.128;2023-06-01T10:13:46;7.60;;;5.13;;
2480;SDS011;57396;48.742;9.128;2023-06-01T10:16:11;5.37;;;4.00;;
2480;SDS011;57396;48.742;9.128;2023-06-01T10:18:37;6.37;;;3.97;;
2480;SDS011;57396;48.742;9.128;2023-06-01T10:21:04;7.70;;;4.13;;
2480;SDS011;57396;48.742;9.128;2023-06-01T10:23:31;8.47;;;5.20;;
2480;SDS011;57396;48.742;9.128;2023-06-01T10:25:57;6.20;;;4.90;;
2480;SDS011;57396;48.742;9.128;2023-06-01T10:28:24;5.40;;;4.27;;
2480;SDS011;57396;48.742;9.128;2023-06-01T10:31:51;7.93;;;5.13;;
2480;SDS011;57396;48.742;9.128;2023-06-01T10:34:01;11.37;;;4.87;;
2480;SDS011;57396;48.742;9.128;2023-06-01T10:39:27;5.37;;;4.40;;
2480;SDS011;57396;48.742;9.128;2023-06-01T10:41:57;8.33;;;4.47;;
2480;SDS011;57396;48.742;9.128;2023-06-01T10:54:52;4.40;;;4.00;;
2480;SDS011;57396;48.742;9.128;2023-06-01T10:57:24;5.47;;;4.27;;
2480;SDS011;57396;48.742;9.128;2023-06-01T11:05:44;8.80;;;4.33;;
2480;SDS011;57396;48.742;9.128;2023-06-01T11:21:15;5.23;;;4.20;;
2480;SDS011;57396;48.742;9.128;2023-06-01T11:23:42;7.50;;;4.00;;
2480;SDS011;57396;48.742;9.128;2023-06-01T11:26:13;6.13;;;3.83;;
2480;SDS011;57396;48.742;9.128;2023-06-01T11:28:41;5.57;;;4.37;;
2480;SDS011;57396;48.742;9.128;2023-06-01T11:31:10;7.03;;;3.93;;
2480;SDS011;57396;48.742;9.128;2023-06-01T11:33:41;6.73;;;4.17;;
2480;SDS011;57396;48.742;9.128;2023-06-01T11:36:15;9.60;;;4.60;;
2480;SDS011;57396;48.742;9.128;2023-06-01T11:38:42;7.63;;;4.47;;
2480;SDS011;57396;48.742;9.128;2023-06-01T11:41:08;8.70;;;4.37;;
2480;SDS011;57396;48.742;9.128;2023-06-01T11:43:34;7.53;;;4.13;;
2480;SDS011;57396;48.742;9.128;2023-06-01T11:46:03;4.93;;;4.30;;
2480;SDS011;57396;48.742;9.128;2023-06-01T11:48:30;5.37;;;4.07;;
2480;SDS011;57396;48.742;9.128;2023-06-01T11:50:56;6.10;;;4.40;;
2480;SDS011;57396;48.742;9.128;2023-06-01T11:53:24;7.80;;;4.30;;
2480;SDS011;57396;48.742;9.128;2023-06-01T11:55:50;7.60;;;4.10;;
2480;SDS011;57396;48.742;9.128;2023-06-01T11:58:23;8.83;;;4.53;;
2480;SDS011;57396;48.742;9.128;2023-06-01T12:00:48;8.60;;;4.63;;
2480;SDS011;57396;48.742;9.128;2023-06-01T12:03:14;9.03;;;4.23;;
2480;SDS011;57396;48.742;9.128;2023-06-01T12:05:41;5.97;;;4.20;;
2480;SDS011;57396;48.742;9.128;2023-06-01T12:08:14;9.87;;;4.23;;
2480;SDS011;57396;48.742;9.128;2023-06-01T12:10:41;5.50;;;4.10;;
2480;SDS011;57396;48.742;9.128;2023-06-01T12:13:09;6.03;;;3.50;;
2480;SDS011;57396;48.742;9.128;2023-06-01T12:15:34;6.17;;;4.07;;
2480;SDS011;57396;48.742;9.128;2023-06-01T12:18:00;12.70;;;3.97;;
2480;SDS011;57396;48.742;9.128;2023-06-01T12:20:29;10.10;;;4.13;;
2480;SDS011;57396;48.742;9.128;2023-06-01T12:22:59;6.63;;;4.17;;
2480;SDS011;57396;48.742;9.128;2023-06-01T12:25:26;6.80;;;4.17;;
2480;SDS011;57396;48.742;9.128;2023-06-01T12:28:04;7.63;;;4.50;;
2480;SDS011;57396;48.742;9.128;2023-06-01T12:30:32;10.50;;;4.00;;
2480;SDS011;57396;48.742;9.128;2023-06-01T12:32:57;5.33;;;4.70;;
2480;SDS011;57396;48.742;9.128;2023-06-01T12:35:23;10.13;;;4.20;;
2480;SDS011;57396;48.742;9.128;2023-06-01T12:40:30;6.10;;;3.97;;
2480;SDS011;57396;48.742;9.128;2023-06-01T12:42:56;7.37;;;4.30;;
2480;SDS011;57396;48.742;9.128;2023-06-01T12:45:21;9.93;;;4.30;;
2480;SDS011;57396;48.742;9.128;2023-06-01T12:47:47;6.97;;;4.17;;
2480;SDS011;57396;48.742;9.128;2023-06-01T12:50:12;5.70;;;4.07;;
2480;SDS011;57396;48.742;9.128;2023-06-01T12:52:39;6.63;;;4.23;;
2480;SDS011;57396;48.742;9.128;2023-06-01T12:55:05;6.87;;;4.00;;
2480;SDS011;57396;48.742;9.128;2023-06-01T12:57:31;4.97;;;3.80;;
2480;SDS011;57396;48.742;9.128;2023-06-01T12:59:57;8.67;;;4.27;;
2480;SDS011;57396;48.742;9.128;2023-06-01T13:02:23;4.73;;;4.07;;
2480;SDS011;57396;48.742;9.128;2023-06-01T13:04:49;5.63;;;4.30;;
2480;SDS011;57396;48.742;9.128;2023-06-01T13:07:14;8.83;;;4.10;;
2480;SDS011;57396;48.742;9.128;2023-06-01T13:09:40;5.27;;;4.30;;
2480;SDS011;57396;48.742;9.128;2023-06-01T13:12:06;4.63;;;3.73;;
2480;SDS011;57396;48.742;9.128;2023-06-01T13:14:32;8.00;;;3.60;;
2480;SDS011;57396;48.742;9.128;2023-06-01T13:16:58;6.00;;;4.03;;
2480;SDS011;57396;48.742;9.128;2023-06-01T13:19:24;6.00;;;3.97;;
2480;SDS011;57396;48.742;9.128;2023-06-01T13:21:50;11.43;;;3.83;;
2480;SDS011;57396;48.742;9.128;2023-06-01T13:24:16;6.43;;;3.80;;
2480;SDS011;57396;48.742;9.128;2023-06-01T13:26:42;6.30;;;4.17;;
2480;SDS011;57396;48.742;9.128;2023-06-01T13:29:07;8.23;;;3.97;;
2480;SDS011;57396;48.742;9.128;2023-06-01T13:31:34;4.83;;;4.10;;
2480;SDS011;57396;48.742;9.128;2023-06-01T13:34:01;4.80;;;4.20;;
2480;SDS011;57396;48.742;9.128;2023-06-01T13:36:26;9.43;;;3.87;;
2480;SDS011;57396;48.742;9.128;2023-06-01T13:38:52;4.50;;;4.10;;
2480;SDS011;57396;48.742;9.128;2023-06-01T13:41:17;8.23;;;4.17;;
2480;SDS011;57396;48.742;9.128;2023-06-01T13:43:43;6.17;;;3.70;;
2480;SDS011;57396;48.742;9.128;2023-06-01T13:46:08;6.43;;;3.90;;
2480;SDS011;57396;48.742;9.128;2023-06-01T13:48:35;5.93;;;4.17;;
2480;SDS011;57396;48.742;9.128;2023-06-01T13:51:01;9.87;;;3.77;;
2480;SDS011;57396;48.742;9.128;2023-06-01T13:53:26;4.20;;;3.73;;
2480;SDS011;57396;48.742;9.128;2023-06-01T13:55:52;4.10;;;3.70;;
2480;SDS011;57396;48.742;9.128;2023-06-01T13:58:17;4.97;;;3.90;;
2480;SDS011;57396;48.742;9.128;2023-06-01T14:00:43;5.80;;;4.23;;
2480;SDS011;57396;48.742;9.128;2023-06-01T14:03:08;7.33;;;4.00;;
2480;SDS011;57396;48.742;9.128;2023-06-01T14:05:34;7.73;;;4.20;;
2480;SDS011;57396;48.742;9.128;2023-06-01T14:07:59;6.50;;;4.00;;
2480;SDS011;57396;48.742;9.128;2023-06-01T14:10:25;6.37;;;3.70;;
2480;SDS011;57396;48.742;9.128;2023-06-01T14:12:50;5.03;;;3.77;;
2480;SDS011;57396;48.742;9.128;2023-06-01T14:15:15;4.17;;;3.50;;
2480;SDS011;57396;48.742;9.128;2023-06-01T14:17:41;5.40;;;3.80;;
2480;SDS011;57396;48.742;9.128;2023-06-01T14:20:06;4.13;;;3.60;;
2480;SDS011;57396;48.742;9.128;2023-06-01T14:22:33;4.93;;;3.40;;
2480;SDS011;57396;48.742;9.128;2023-06-01T14:24:58;6.73;;;3.73;;
2480;SDS011;57396;48.742;9.128;2023-06-01T14:27:24;4.33;;;3.93;;
2480;SDS011;57396;48.742;9.128;2023-06-01T14:29:49;6.80;;;3.30;;
2480;SDS011;57396;48.742;9.128;2023-06-01T14:32:15;6.30;;;3.23;;
2480;SDS011;57396;48.742;9.128;2023-06-01T14:34:40;7.20;;;3.80;;
2480;SDS011;57396;48.742;9.128;2023-06-01T14:37:06;6.83;;;3.67;;
2480;SDS011;57396;48.742;9.128;2023-06-01T14:39:32;6.50;;;3.50;;
2480;SDS011;57396;48.742;9.128;2023-06-01T14:41:57;6.10;;;3.20;;
2480;SDS011;57396;48.742;9.128;2023-06-01T14:44:23;7.50;;;3.50;;
2480;SDS011;57396;48.742;9.128;2023-06-01T14:46:48;7.03;;;3.20;;
2480;SDS011;57396;48.742;9.128;2023-06-01T14:49:14;3.57;;;3.27;;
2480;SDS011;57396;48.742;9.128;2023-06-01T14:51:39;7.23;;;3.30;;
2480;SDS011;57396;48.742;9.128;2023-06-01T14:54:04;9.50;;;3.20;;
2480;SDS011;57396;48.742;9.128;2023-06-01T14:56:30;3.70;;;3.10;;
2480;SDS011;57396;48.742;9.128;2023-06-01T14:58:56;4.80;;;3.20;;
2480;SDS011;57396;48.742;9.128;2023-06-01T15:01:21;10.23;;;2.70;;
2480;SDS011;57396;48.742;9.128;2023-06-01T15:03:49;4.40;;;2.40;;
2480;SDS011;57396;48.742;9.128;2023-06-01T15:06:14;4.57;;;2.67;;
2480;SDS011;57396;48.742;9.128;2023-06-01T15:08:40;5.67;;;2.70;;
2480;SDS011;57396;48.742;9.128;2023-06-01T15:11:05;5.93;;;2.70;;
2480;SDS011;57396;48.742;9.128;2023-06-01T15:13:31;3.40;;;2.63;;
2480;SDS011;57396;48.742;9.128;2023-06-01T15:15:56;5.70;;;2.63;;
2480;SDS011;57396;48.742;9.128;2023-06-01T15:18:22;6.40;;;2.00;;
2480;SDS011;57396;48.742;9.128;2023-06-01T15:20:47;4.90;;;2.90;;
2480;SDS011;57396;48.742;9.128;2023-06-01T15:23:16;3.97;;;2.63;;
2480;SDS011;57396;48.742;9.128;2023-06-01T15:25:42;9.27;;;2.37;;
2480;SDS011;57396;48.742;9.128;2023-06-01T15:28:08;6.60;;;2.57;;
2480;SDS011;57396;48.742;9.128;2023-06-01T15:30:33;7.03;;;3.77;;
2480;SDS011;57396;48.742;9.128;2023-06-01T15:33:00;7.33;;;2.40;;
2480;SDS011;57396;48.742;9.128;2023-06-01T15:35:25;7.13;;;2.67;;
2480;SDS011;57396;48.742;9.128;2023-06-01T15:37:51;3.73;;;2.67;;
2480;SDS011;57396;48.742;9.128;2023-06-01T15:40:16;5.53;;;2.80;;
2480;SDS011;57396;48.742;9.128;2023-06-01T15:42:41;2.90;;;2.30;;
2480;SDS011;57396;48.742;9.128;2023-06-01T15:45:07;3.40;;;2.10;;
2480;SDS011;57396;48.742;9.128;2023-06-01T15:47:33;2.23;;;2.03;;
2480;SDS011;57396;48.742;9.128;2023-06-01T15:49:58;5.73;;;2.17;;